Norris, Georgia
Current Conditions -  °F | °C
As of 3:55 PM on Thursday 18 Dec 2014 (Local Time) from KHQU Reporting Station
Broken Clouds Broken Clouds  
Wind Chill: 61°   Ceiling: 11000
Heat Index: 61°   Visibility: 10mi
Dew Point: 43°   Wind: 3mph
Humidity: 53%   Direction: 280°W
Pressure: 30.12"   Gusts: NA
Location:  33.3862°N, 82.5904°W
Report Text: KHQU 182055Z AUTO 28003KT 10SM BKN110 16/06 A3012 RMK AO1 T01590063
Loading
Personal Weather Stations






























Interactive Weather Map New forecast layout! Learn more

10-Day Weather Forecast

Advertisements
Track Severe Weather on mobile